Dauntless Aviation
Airports Europe Belgium
EBAW
ANR

Antwerp International Airport (Deurne)

Antwerp, BELGIUM

Airport Info
Suggest Updated Information for this Airport

Location

Latitude / Longitude: 51°11'21"N / 4°27'37"E
  51°11.364'N / 4°27.618'E
  51.1894 / 4.4603

Nearby radio navigation aids

ANT ANTWERPEN VOR/DME on field.
NIK NICKY VOR/DME. 83.0° 10.6nm from NIK to field.
ONW ANTWERPEN NDB. 290.6° 4.1nm from ONW to field.
WW ANTWERP NDB on field.

Runway Information

Runway 11 /29

Dimensions: 4954 x 148 ft.
Surface: ASP
 
Runway 11
Runway 29
Latitude: 51.191861 51.187706
Longitude: 4.454758 4.473178
Elevation: 36 ft. 36 ft.
Runway true heading: 108 288
 

Instrument Procedures

  Aerodrome Chart
  Aerodrome Chart Appendix 1: Runway Marking and Lighting Aids
  Aerodrome Chart Appendix 2: Hot Spots

STARs (Standard Terminal Arrivals)

  STAR - Instrument

IAPs (Instrument Approach Procedures)

  Aerodrome Obstacle Chart. Type A (Operating Limitations)
  Aerodrome Information (Textual)
  ATC Surveillance Minimum Altitude Chart
  ILS or LOC Rwy 29
  VOR Rwy 11
  VOR Rwy 29
  Visual Approach Chart
  Visual Approach Chart Appendix 1: Aerodrome Traffic Circuit
  Visual Approach Chart Appendix 2: Helicopter Procedures
  RNP Rwy 11. Appendix: FAS Datablock
  RNP Rwy 11

Departure Procedures

  SID - Instrument Rwy 11
  SID - Instrument Rwy 29
Satellite photo at:
Airport distance calculator
From:
Weather Reports

METAR

EBAW

EBAW 051850Z 25016G27KT 210V270 9999 FEW043 19/09 Q1012 BECMG 25015KT
EHWO
16.5nm NW
EHWO 051855Z AUTO 25019KT 210V280 9999 BKN220 18/09 Q1011 BLU
EBBR
17.4nm SE
EBBR 051850Z 24016KT 9999 FEW038 18/10 Q1013 NOSIG
EBDT
25.1nm E
EBDT 051825Z AUTO 24015KT 9999 FEW042/// 20/11 Q1012 BLU
EHGR
28.4nm N
EHGR 051855Z AUTO 24011G21KT 220V290 9999 OVC200 19/10 Q1011 BLU
EBBE
28.8nm SE
EBBE 051825Z AUTO 25021G35KT 9999 NCD 19/12 Q1012 BLU

TAF

EBAW
TAF EBAW 051710Z 0518/0603 24013KT 9999 FEW035 TEMPO 0518/0520 24016G28KT
EBBR
17.4nm SE
TAF EBBR 051110Z 0512/0618 24016KT 9999 SCT020 TEMPO 0512/0519 24018G30KT BECMG 0615/0617 30010KT
EBBL
37.9nm E
TAF EBBL 051141Z 0513/0522 24015G25KT 9999 BKN015 BECMG 0514/0516 9999 SCT015 BKN030 BECMG 0516/0518 SCT035
EHEH
38.0nm NE
TAF EHEH 051732Z 0518/0624 23018G28KT FEW030 SCT040 BECMG 0518/0520 24012KT BECMG 0606/0608 27014G24KT TEMPO 0606/0618 SCT020CB BKN025 BECMG 0618/0620 28005KT
Safelog

 

Dauntless Aviation

© 2007-2020 Dauntless Aviation, all rights reserved
Information provided via PilotNav comes from a variety of official and unofficial data sources. As errors are possible, do not use PilotNav for primary flight planning purposes. Verify any information that you receive via PilotNav with current and canonical charts and other official documents. The material in this database is subject to database copyrights held by Dauntless Aviation and may not be copied without the express permission of Dauntless Aviation - licenses for use of part of all of this data are available for purchase; enquire via the Dauntless Aviation helpdesk. A number of mechanisms and markers exist in the database to protect against and identify infringement / copyright. Automated queries against this website are strictly prohibited, and all activity is logged and analyzed.